Time;durP1;ratioP1;P1;durP2;ratioP2;P2;SDS_P1;SDS_P2;PMS_P1;PMS_P2;Temp;Humidity;BMP_temperature;BMP_pressure;BME280_temperature;BME280_humidity;BME280_pressure;Samples;Min_cycle;Max_cycle;Signal;HPM_P1;HPM_P2
2022/01/17 00:00:50;;;;;;;26.97;23.60;;;;;21.60;101817.00;;;;2087896;28;20216;-60
2022/01/17 00:01:51;;;;;;;26.60;22.80;;;;;21.60;101819.00;;;;2088509;28;20217;-60
2022/01/17 00:02:51;;;;;;;26.33;22.93;;;;;21.60;101818.00;;;;2088704;28;20209;-60
2022/01/17 00:03:52;;;;;;;27.17;22.67;;;;;21.60;101827.00;;;;2088742;28;20696;-60
2022/01/17 00:04:52;;;;;;;26.13;23.13;;;;;21.60;101829.00;;;;2088726;28;20220;-60
2022/01/17 00:05:53;;;;;;;24.90;22.27;;;;;21.60;101830.00;;;;2088656;28;20217;-60
2022/01/17 00:06:53;;;;;;;27.17;22.87;;;;;21.60;101836.00;;;;2088670;28;20221;-60
2022/01/17 00:07:53;;;;;;;26.53;22.73;;;;;21.60;101835.00;;;;2087978;28;20851;-60
2022/01/17 00:08:54;;;;;;;25.33;21.97;;;;;21.60;101833.00;;;;2088751;28;20221;-60
2022/01/17 00:09:54;;;;;;;24.60;21.37;;;;;21.60;101838.00;;;;2088946;28;20681;-60
2022/01/17 00:10:54;;;;;;;23.67;21.07;;;;;21.60;101842.00;;;;2088134;28;21026;-60
2022/01/17 00:11:56;;;;;;;27.47;23.07;;;;;21.60;101839.00;;;;2085359;28;20856;-59
2022/01/17 00:12:58;;;;;;;24.63;21.20;;;;;21.50;101840.00;;;;2088595;28;20298;-60
2022/01/17 00:13:59;;;;;;;24.60;21.17;;;;;21.50;101837.00;;;;2089163;28;20651;-59
2022/01/17 00:14:59;;;;;;;24.33;21.13;;;;;21.50;101845.00;;;;2089215;28;20251;-59
2022/01/17 00:20:27;;;;;;;23.80;21.30;;;;;21.50;101847.00;;;;2088447;28;20802;-61
2022/01/17 00:21:27;;;;;;;23.00;19.33;;;;;21.50;101857.00;;;;2085423;28;20209;-60
2022/01/17 00:22:28;;;;;;;21.63;19.40;;;;;21.50;101856.00;;;;2086499;28;20660;-60
2022/01/17 00:23:28;;;;;;;23.93;20.83;;;;;21.50;101847.00;;;;2088910;28;20201;-59
2022/01/17 00:24:28;;;;;;;24.27;20.67;;;;;21.50;101850.00;;;;2088884;28;20216;-60
2022/01/17 00:25:29;;;;;;;22.57;20.17;;;;;21.50;101851.00;;;;2088950;28;20278;-60
2022/01/17 00:26:29;;;;;;;23.10;20.60;;;;;21.50;101855.00;;;;2089062;28;20201;-60
2022/01/17 00:27:31;;;;;;;21.63;18.90;;;;;21.50;101851.00;;;;2085998;28;20255;-60
2022/01/17 00:28:31;;;;;;;25.83;20.63;;;;;21.50;101851.00;;;;2087692;28;20216;-60
2022/01/17 00:29:32;;;;;;;22.33;19.97;;;;;21.40;101861.00;;;;2087568;28;20212;-60
2022/01/17 00:30:32;;;;;;;21.67;19.47;;;;;21.50;101857.00;;;;2087979;28;20232;-60
2022/01/17 00:31:32;;;;;;;19.70;17.70;;;;;21.40;101859.00;;;;2088233;28;20255;-60
2022/01/17 00:32:33;;;;;;;21.17;18.53;;;;;21.40;101850.00;;;;2088221;28;20770;-60
2022/01/17 00:33:34;;;;;;;22.27;18.80;;;;;21.40;101844.00;;;;2087669;28;20720;-60
2022/01/17 00:34:34;;;;;;;20.67;18.17;;;;;21.40;101843.00;;;;2083842;28;20206;-60
2022/01/17 00:35:34;;;;;;;20.10;18.00;;;;;21.40;101843.00;;;;2088072;28;20205;-60
2022/01/17 00:36:34;;;;;;;21.20;19.00;;;;;21.30;101845.00;;;;2087696;28;20700;-60
2022/01/17 00:37:35;;;;;;;20.30;18.10;;;;;21.40;101843.00;;;;2086198;28;20869;-60
2022/01/17 00:38:35;;;;;;;20.90;18.80;;;;;21.40;101829.00;;;;2088274;28;20225;-60
2022/01/17 00:39:36;;;;;;;19.67;17.67;;;;;21.40;101837.00;;;;2087497;28;20282;-60
2022/01/17 00:40:36;;;;;;;19.60;17.50;;;;;21.40;101842.00;;;;2087803;28;20209;-59
2022/01/17 00:41:36;;;;;;;19.40;17.40;;;;;21.40;101834.00;;;;2088656;28;20220;-60
2022/01/17 00:42:36;;;;;;;20.43;18.37;;;;;21.40;101833.00;;;;2085898;28;20213;-60
2022/01/17 00:43:37;;;;;;;19.23;17.10;;;;;21.40;101835.00;;;;2087545;28;20220;-60
2022/01/17 00:44:37;;;;;;;19.13;17.13;;;;;21.40;101832.00;;;;2086977;28;20217;-60
2022/01/17 00:45:39;;;;;;;19.30;17.40;;;;;21.40;101838.00;;;;2084177;28;20666;-60
2022/01/17 00:46:39;;;;;;;18.58;16.50;;;;;21.40;101826.00;;;;2084422;28;20209;-60
2022/01/17 00:47:40;;;;;;;18.80;16.87;;;;;21.40;101830.00;;;;2086036;28;20205;-60
2022/01/17 00:48:40;;;;;;;19.40;17.40;;;;;21.40;101837.00;;;;2088329;28;20335;-60
2022/01/17 00:49:41;;;;;;;19.80;17.70;;;;;21.40;101836.00;;;;2087574;28;20266;-60
2022/01/17 00:50:42;;;;;;;18.73;16.83;;;;;21.40;101834.00;;;;2087448;28;20205;-60
2022/01/17 00:51:42;;;;;;;18.77;16.83;;;;;21.30;101840.00;;;;2087418;28;20457;-60
2022/01/17 00:52:42;;;;;;;19.47;17.50;;;;;21.30;101834.00;;;;2084789;28;20217;-60
2022/01/17 00:53:43;;;;;;;18.60;16.70;;;;;21.40;101827.00;;;;2088292;28;20201;-60
2022/01/17 00:54:43;;;;;;;18.67;16.20;;;;;21.30;101843.00;;;;2087491;28;20216;-60
2022/01/17 00:55:44;;;;;;;19.53;17.53;;;;;21.30;101851.00;;;;2087441;28;20576;-60
2022/01/17 00:56:44;;;;;;;19.67;17.77;;;;;21.30;101842.00;;;;2087051;28;20629;-60
2022/01/17 00:57:44;;;;;;;19.47;17.47;;;;;21.30;101843.00;;;;2088189;28;20218;-60
2022/01/17 00:58:45;;;;;;;19.20;17.30;;;;;21.30;101847.00;;;;2088511;28;20209;-60
2022/01/17 00:59:45;;;;;;;19.47;16.50;;;;;21.30;101854.00;;;;2088616;28;20244;-60
2022/01/17 01:00:45;;;;;;;19.00;16.03;;;;;21.40;101858.00;;;;2088375;28;20254;-60
2022/01/17 01:01:46;;;;;;;19.60;17.50;;;;;21.30;101862.00;;;;2088388;28;20213;-60
2022/01/17 01:02:47;;;;;;;20.47;16.23;;;;;21.30;101861.00;;;;2088354;28;20209;-60
2022/01/17 01:03:47;;;;;;;17.60;15.73;;;;;21.30;101861.00;;;;2088557;28;20209;-60
2022/01/17 01:04:47;;;;;;;18.10;15.77;;;;;21.30;101869.00;;;;2088440;28;20452;-60
2022/01/17 01:05:48;;;;;;;17.80;15.90;;;;;21.30;101870.00;;;;2087839;28;20224;-60
2022/01/17 01:06:48;;;;;;;18.23;16.33;;;;;21.30;101863.00;;;;2087848;28;20684;-60
2022/01/17 01:07:50;;;;;;;17.50;15.70;;;;;21.30;101870.00;;;;2088133;28;20221;-60
2022/01/17 01:08:50;;;;;;;17.67;15.82;;;;;21.30;101873.00;;;;2088043;28;20285;-60
2022/01/17 01:10:04;;;;;;;18.20;16.30;;;;;21.30;101872.00;;;;2087983;28;20213;-60
2022/01/17 01:11:04;;;;;;;18.80;16.90;;;;;21.30;101858.00;;;;2084457;28;20216;-60
2022/01/17 01:12:04;;;;;;;18.33;16.10;;;;;21.30;101858.00;;;;2088298;28;20225;-60
2022/01/17 01:13:05;;;;;;;18.07;16.27;;;;;21.30;101857.00;;;;2087831;28;20221;-60
2022/01/17 01:14:05;;;;;;;18.07;15.77;;;;;21.30;101848.00;;;;2086427;28;20781;-60
2022/01/17 01:15:09;;;;;;;17.63;15.73;;;;;21.30;101847.00;;;;2087246;28;20224;-60
2022/01/17 01:16:23;;;;;;;17.85;15.98;;;;;21.30;101850.00;;;;2087941;28;20677;-60
2022/01/17 01:17:47;;;;;;;19.40;16.40;;;;;21.30;101834.00;;;;2082574;28;20258;-60
2022/01/17 01:20:02;;;;;;;18.27;16.38;;;;;21.20;101826.00;;;;2087979;28;20703;-60
2022/01/17 01:27:54;;;;;;;16.52;14.93;;;;;21.20;101842.00;;;;2085617;28;20240;-60
2022/01/17 01:28:54;;;;;;;20.10;16.80;;;;;21.20;101842.00;;;;2087443;28;21712;-60
2022/01/17 01:29:58;;;;;;;17.90;15.57;;;;;21.20;101827.00;;;;2088232;28;20257;-60
2022/01/17 01:31:01;;;;;;;16.77;15.07;;;;;21.20;101829.00;;;;2088173;28;20262;-60
2022/01/17 01:32:06;;;;;;;17.73;15.88;;;;;21.20;101825.00;;;;2088417;28;20224;-60
2022/01/17 01:33:06;;;;;;;17.63;15.82;;;;;21.20;101827.00;;;;2084858;28;20278;-60
2022/01/17 01:34:08;;;;;;;17.93;16.00;;;;;21.20;101843.00;;;;2088389;28;20258;-60
2022/01/17 01:35:11;;;;;;;18.48;16.48;;;;;21.20;101844.00;;;;2088009;28;20205;-60
2022/01/17 01:36:17;;;;;;;17.25;15.45;;;;;21.20;101841.00;;;;2088371;28;20585;-60
2022/01/17 01:37:17;;;;;;;18.10;16.25;;;;;21.20;101843.00;;;;2083265;28;20320;-60
2022/01/17 01:38:18;;;;;;;17.77;15.50;;;;;21.20;101856.00;;;;2079340;28;20213;-60
2022/01/17 01:39:23;;;;;;;16.23;14.63;;;;;21.20;101850.00;;;;2079418;28;20232;-60
2022/01/17 01:40:23;;;;;;;17.40;15.68;;;;;21.20;101862.00;;;;2087461;28;20236;-60
2022/01/17 01:41:23;;;;;;;16.87;15.07;;;;;21.20;101873.00;;;;2088295;28;20240;-60
2022/01/17 01:42:24;;;;;;;17.47;15.67;;;;;21.10;101872.00;;;;2085728;28;20219;-60
2022/01/17 01:43:25;;;;;;;19.67;17.03;;;;;21.10;101862.00;;;;2084667;28;20209;-60
2022/01/17 01:44:26;;;;;;;16.00;14.40;;;;;21.10;101874.00;;;;2088144;28;20474;-60
2022/01/17 01:45:27;;;;;;;17.67;15.90;;;;;21.10;101884.00;;;;2087419;28;20300;-60
2022/01/17 01:46:27;;;;;;;17.53;15.83;;;;;21.10;101886.00;;;;2087486;28;20220;-60
2022/01/17 01:47:28;;;;;;;17.83;15.93;;;;;21.10;101883.00;;;;2081845;28;21541;-60
2022/01/17 01:48:29;;;;;;;18.50;16.27;;;;;21.10;101898.00;;;;2087842;28;20213;-60
2022/01/17 01:49:30;;;;;;;19.08;15.75;;;;;21.10;101898.00;;;;2087070;28;20220;-60
2022/01/17 01:50:30;;;;;;;18.23;16.37;;;;;21.10;101895.00;;;;2086922;28;20212;-60
2022/01/17 01:51:30;;;;;;;16.90;15.20;;;;;21.10;101895.00;;;;2084707;28;20213;-60
2022/01/17 01:52:31;;;;;;;17.47;15.73;;;;;21.10;101895.00;;;;2084781;28;20212;-60
2022/01/17 01:53:31;;;;;;;17.63;15.83;;;;;21.10;101895.00;;;;2088040;28;20205;-60
2022/01/17 01:54:32;;;;;;;18.00;16.10;;;;;21.10;101895.00;;;;2088173;28;20268;-60
2022/01/17 01:55:32;;;;;;;18.03;16.23;;;;;21.10;101884.00;;;;2088167;28;20580;-60
2022/01/17 01:56:32;;;;;;;17.03;15.33;;;;;21.10;101883.00;;;;2087903;28;20216;-60
2022/01/17 01:57:32;;;;;;;17.43;15.53;;;;;21.10;101878.00;;;;2076237;28;20213;-60
2022/01/17 01:58:33;;;;;;;18.67;16.80;;;;;21.10;101870.00;;;;2078829;28;20248;-60
2022/01/17 01:59:33;;;;;;;17.37;15.67;;;;;21.10;101879.00;;;;2087069;28;20208;-60
2022/01/17 02:00:33;;;;;;;19.30;16.33;;;;;21.10;101865.00;;;;2087412;28;20439;-60
2022/01/17 02:01:34;;;;;;;19.07;17.07;;;;;21.10;101871.00;;;;2087951;28;20262;-60
2022/01/17 02:02:34;;;;;;;17.70;15.80;;;;;21.10;101872.00;;;;2081093;28;20212;-60
2022/01/17 02:03:35;;;;;;;18.40;16.50;;;;;21.10;101881.00;;;;2091484;28;20290;-60
2022/01/17 02:04:35;;;;;;;18.93;17.10;;;;;21.10;101883.00;;;;2084833;28;20243;-60
2022/01/17 02:05:35;;;;;;;18.80;16.90;;;;;21.10;101876.00;;;;2086758;28;20224;-60
2022/01/17 02:06:36;;;;;;;18.63;16.63;;;;;21.10;101862.00;;;;2086907;28;20247;-60
2022/01/17 02:07:36;;;;;;;18.53;16.50;;;;;21.10;101858.00;;;;2078279;28;20252;-60
2022/01/17 02:08:37;;;;;;;18.67;16.70;;;;;21.10;101872.00;;;;2087393;28;20217;-60
2022/01/17 02:09:37;;;;;;;18.87;16.90;;;;;21.00;101873.00;;;;2079103;28;20445;-60
2022/01/17 02:10:38;;;;;;;20.50;18.30;;;;;21.00;101865.00;;;;2087269;28;20687;-60
2022/01/17 02:11:38;;;;;;;20.47;18.37;;;;;21.10;101887.00;;;;2087919;28;20240;-60
2022/01/17 02:12:38;;;;;;;17.60;15.80;;;;;21.00;101887.00;;;;2088014;28;20205;-60
2022/01/17 02:13:39;;;;;;;21.27;18.87;;;;;21.00;101878.00;;;;2088190;28;20262;-60
2022/01/17 02:14:39;;;;;;;21.30;18.40;;;;;21.00;101872.00;;;;2088248;28;20275;-60
2022/01/17 02:15:42;;;;;;;18.50;16.60;;;;;21.00;101870.00;;;;2087438;28;20205;-59
2022/01/17 02:16:45;;;;;;;18.42;16.63;;;;;21.00;101870.00;;;;2086960;28;20212;-60
2022/01/17 02:17:53;;;;;;;19.77;17.67;;;;;21.00;101862.00;;;;2088109;28;20796;-60
2022/01/17 02:18:53;;;;;;;20.60;18.50;;;;;21.00;101875.00;;;;2087371;28;20209;-60
2022/01/17 02:20:08;;;;;;;20.27;18.07;;;;;21.00;101865.00;;;;2087370;28;20304;-60
2022/01/17 02:22:15;;;;;;;19.73;17.70;;;;;21.00;101865.00;;;;2085609;28;20325;-60
2022/01/17 02:23:17;;;;;;;21.00;18.70;;;;;21.00;101858.00;;;;2087885;28;20591;-60
2022/01/17 02:24:19;;;;;;;21.65;17.90;;;;;21.00;101860.00;;;;2087859;28;20235;-60
2022/01/17 02:25:19;;;;;;;21.02;18.42;;;;;21.00;101862.00;;;;2083758;28;20216;-60
2022/01/17 02:26:20;;;;;;;20.00;17.90;;;;;21.00;101871.00;;;;2087800;28;20299;-60
2022/01/17 02:27:20;;;;;;;19.47;17.47;;;;;21.00;101869.00;;;;2088006;28;20216;-60
2022/01/17 02:28:20;;;;;;;20.47;18.07;;;;;21.00;101869.00;;;;2087999;28;20213;-59
2022/01/17 02:29:21;;;;;;;20.43;18.23;;;;;21.00;101875.00;;;;2087932;28;20212;-60
2022/01/17 02:30:23;;;;;;;21.63;19.40;;;;;21.00;101870.00;;;;2087844;28;20223;-60
2022/01/17 02:31:23;;;;;;;19.70;17.77;;;;;21.00;101875.00;;;;2087625;28;20221;-60
2022/01/17 02:32:23;;;;;;;20.37;18.23;;;;;21.00;101875.00;;;;2088037;28;20216;-60
2022/01/17 02:33:24;;;;;;;21.73;18.97;;;;;21.00;101884.00;;;;2087998;28;20220;-60
2022/01/17 02:34:24;;;;;;;20.03;18.03;;;;;21.00;101882.00;;;;2087915;28;20707;-60
2022/01/17 02:35:25;;;;;;;21.00;18.77;;;;;21.00;101878.00;;;;2087690;28;20235;-60
2022/01/17 02:36:25;;;;;;;20.73;18.63;;;;;21.00;101874.00;;;;2088025;28;20341;-60
2022/01/17 02:37:25;;;;;;;21.67;19.30;;;;;21.00;101871.00;;;;2087736;28;20215;-59
2022/01/17 02:38:26;;;;;;;22.37;19.20;;;;;20.90;101871.00;;;;2087945;28;20208;-59
2022/01/17 02:39:26;;;;;;;21.27;19.00;;;;;20.90;101874.00;;;;2087877;28;20265;-59
2022/01/17 02:40:27;;;;;;;22.83;18.70;;;;;20.90;101873.00;;;;2087597;28;20223;-60
2022/01/17 02:41:33;;;;;;;21.90;19.20;;;;;20.90;101863.00;;;;2087939;28;20619;-60
2022/01/17 02:42:36;;;;;;;22.60;20.30;;;;;20.90;101864.00;;;;2087165;28;20209;-59
2022/01/17 02:43:36;;;;;;;21.65;19.35;;;;;20.90;101862.00;;;;2086951;28;21075;-60
2022/01/17 02:44:44;;;;;;;21.23;18.93;;;;;20.90;101860.00;;;;2087972;28;20240;-60
2022/01/17 02:46:29;;;;;;;20.27;17.95;;;;;20.90;101851.00;;;;2087611;28;20212;-60
2022/01/17 02:47:05;;;;;;;22.13;19.80;;;;;20.90;101853.00;;;;2070191;28;20252;-60
2022/01/17 02:48:06;;;;;;;24.07;20.37;;;;;20.90;101856.00;;;;2087855;28;25898;-60
2022/01/17 02:49:08;;;;;;;22.83;19.90;;;;;20.90;101860.00;;;;2087800;28;20221;-60
2022/01/17 02:50:09;;;;;;;23.80;20.20;;;;;20.90;101848.00;;;;2087948;28;20213;-60
2022/01/17 02:51:11;;;;;;;22.10;18.80;;;;;20.90;101842.00;;;;2082224;28;20224;-60
2022/01/17 02:52:11;;;;;;;21.83;19.45;;;;;20.90;101837.00;;;;2087734;28;20676;-60
2022/01/17 02:53:12;;;;;;;21.83;19.50;;;;;20.90;101840.00;;;;2086179;28;20212;-60
2022/01/17 02:54:12;;;;;;;22.30;19.50;;;;;20.90;101844.00;;;;2087675;28;20579;-60
2022/01/17 02:55:13;;;;;;;22.90;19.77;;;;;20.90;101845.00;;;;2087865;28;20824;-60
2022/01/17 02:56:13;;;;;;;20.27;18.27;;;;;20.90;101855.00;;;;2087643;28;20620;-60
2022/01/17 02:57:13;;;;;;;22.37;19.57;;;;;20.90;101848.00;;;;2087434;28;20580;-60
2022/01/17 02:58:14;;;;;;;21.60;19.37;;;;;20.90;101843.00;;;;2086471;28;20451;-60
2022/01/17 02:59:14;;;;;;;22.10;19.80;;;;;20.90;101850.00;;;;2087554;28;20212;-59
2022/01/17 03:00:14;;;;;;;22.33;19.97;;;;;20.90;101843.00;;;;2087644;28;20240;-60
2022/01/17 03:01:17;;;;;;;28.63;19.50;;;;;20.90;101847.00;;;;2087578;28;20217;-59
2022/01/17 03:02:17;;;;;;;22.25;19.15;;;;;20.90;101839.00;;;;2087697;28;20212;-60
2022/01/17 03:03:19;;;;;;;23.03;19.50;;;;;20.90;101852.00;;;;2087785;28;20212;-60
2022/01/17 03:04:20;;;;;;;22.63;19.50;;;;;20.90;101846.00;;;;2087134;28;20215;-60
2022/01/17 03:05:20;;;;;;;21.63;18.73;;;;;20.80;101840.00;;;;2087832;28;20212;-60
2022/01/17 03:06:20;;;;;;;23.87;19.93;;;;;20.80;101844.00;;;;2087811;28;20311;-60
2022/01/17 03:07:21;;;;;;;21.90;18.40;;;;;20.90;101855.00;;;;2086932;28;20244;-60
2022/01/17 03:08:22;;;;;;;23.70;20.47;;;;;20.90;101854.00;;;;2087098;28;20236;-60
2022/01/17 03:09:24;;;;;;;20.88;18.65;;;;;20.90;101847.00;;;;2087819;28;20243;-60
2022/01/17 03:11:31;;;;;;;23.48;19.85;;;;;20.80;101854.00;;;;2087079;28;20271;-60
2022/01/17 03:12:31;;;;;;;20.60;18.50;;;;;20.90;101858.00;;;;2087280;28;20292;-60
2022/01/17 03:13:36;;;;;;;20.70;18.60;;;;;20.80;101856.00;;;;2087701;28;20201;-60
2022/01/17 03:14:36;;;;;;;21.45;19.15;;;;;20.80;101849.00;;;;2087551;28;20335;-60
2022/01/17 03:15:37;;;;;;;22.00;19.47;;;;;20.80;101849.00;;;;2087922;28;20523;-60
2022/01/17 03:16:45;;;;;;;21.50;19.23;;;;;20.80;101855.00;;;;2087683;28;20209;-60
2022/01/17 03:17:45;;;;;;;21.00;18.60;;;;;20.80;101845.00;;;;2087738;28;20213;-60
2022/01/17 03:18:50;;;;;;;20.37;18.13;;;;;20.80;101853.00;;;;2087684;28;20233;-60
2022/01/17 03:19:50;;;;;;;20.77;18.58;;;;;20.80;101857.00;;;;2083596;28;20300;-60
2022/01/17 03:20:50;;;;;;;21.50;19.20;;;;;20.80;101851.00;;;;2087498;28;20576;-60
2022/01/17 03:21:51;;;;;;;19.73;17.73;;;;;20.80;101847.00;;;;2087777;28;20295;-60
2022/01/17 03:22:51;;;;;;;20.37;18.10;;;;;20.80;101857.00;;;;2087319;28;20672;-60
2022/01/17 03:23:51;;;;;;;23.43;20.27;;;;;20.80;101859.00;;;;2086781;28;20633;-60
2022/01/17 03:24:52;;;;;;;21.07;18.80;;;;;20.80;101852.00;;;;2087837;28;20613;-60
2022/01/17 03:25:52;;;;;;;22.17;19.40;;;;;20.80;101869.00;;;;2087799;28;20213;-60
2022/01/17 03:26:53;;;;;;;21.97;18.53;;;;;20.80;101872.00;;;;2087673;28;20591;-60
2022/01/17 03:27:53;;;;;;;21.20;18.97;;;;;20.80;101859.00;;;;2087876;28;20209;-60
2022/01/17 03:28:53;;;;;;;20.70;18.43;;;;;20.80;101859.00;;;;2087775;28;20216;-62
2022/01/17 03:29:54;;;;;;;23.27;19.17;;;;;20.80;101862.00;;;;2087720;28;20216;-60
2022/01/17 03:30:54;;;;;;;22.40;17.93;;;;;20.80;101861.00;;;;2087486;28;20217;-60
2022/01/17 03:31:54;;;;;;;20.57;18.57;;;;;20.80;101872.00;;;;2087687;28;20248;-60
2022/01/17 03:32:55;;;;;;;21.40;19.20;;;;;20.80;101855.00;;;;2087741;28;20228;-60
2022/01/17 03:33:55;;;;;;;20.20;18.10;;;;;20.80;101856.00;;;;2087757;28;20209;-60
2022/01/17 03:34:55;;;;;;;20.37;17.70;;;;;20.80;101865.00;;;;2087673;28;20347;-60
2022/01/17 03:35:56;;;;;;;20.60;18.00;;;;;20.80;101860.00;;;;2086243;28;20220;-60
2022/01/17 03:36:56;;;;;;;20.60;18.00;;;;;20.80;101861.00;;;;2088291;28;20231;-60
2022/01/17 03:37:56;;;;;;;20.23;18.10;;;;;20.80;101874.00;;;;2089314;28;20707;-60
2022/01/17 03:38:57;;;;;;;21.03;18.23;;;;;20.80;101874.00;;;;2089228;28;20217;-60
2022/01/17 03:39:57;;;;;;;20.30;18.13;;;;;20.80;101877.00;;;;2089186;28;20221;-60
2022/01/17 03:40:59;;;;;;;23.50;18.97;;;;;20.80;101865.00;;;;2088831;28;20692;-60
2022/01/17 03:42:00;;;;;;;20.98;18.88;;;;;20.80;101869.00;;;;2089116;28;20239;-60
2022/01/17 03:43:00;;;;;;;22.90;18.87;;;;;20.70;101872.00;;;;2089192;28;20584;-60
2022/01/17 03:44:00;;;;;;;20.67;18.47;;;;;20.70;101871.00;;;;2089167;28;20213;-60
2022/01/17 03:45:03;;;;;;;19.50;17.50;;;;;20.80;101872.00;;;;2089037;28;20213;-60
2022/01/17 03:46:04;;;;;;;19.98;17.73;;;;;20.70;101870.00;;;;2088406;28;20221;-60
2022/01/17 03:47:04;;;;;;;20.40;18.30;;;;;20.70;101864.00;;;;2087081;28;21100;-60
2022/01/17 03:48:04;;;;;;;21.67;19.40;;;;;20.70;101865.00;;;;2089176;28;20221;-60
2022/01/17 03:49:05;;;;;;;20.83;18.37;;;;;20.70;101862.00;;;;2089135;28;20221;-60
2022/01/17 03:50:08;;;;;;;19.60;17.50;;;;;20.70;101865.00;;;;2089249;28;20700;-60
2022/01/17 03:51:09;;;;;;;20.33;18.20;;;;;20.70;101861.00;;;;2088733;28;20304;-60
2022/01/17 03:52:09;;;;;;;20.03;17.60;;;;;20.70;101858.00;;;;2089114;28;20217;-60
2022/01/17 03:53:10;;;;;;;18.97;16.97;;;;;20.70;101872.00;;;;2088483;28;20233;-60
2022/01/17 03:54:10;;;;;;;20.20;18.10;;;;;20.70;101875.00;;;;2088439;28;20699;-60
2022/01/17 03:55:15;;;;;;;20.37;18.27;;;;;20.70;101875.00;;;;2089139;28;20267;-60
2022/01/17 03:56:18;;;;;;;20.50;18.27;;;;;20.70;101879.00;;;;2089123;28;20217;-60
2022/01/17 03:57:18;;;;;;;21.38;19.17;;;;;20.70;101882.00;;;;2088756;28;20264;-60
2022/01/17 03:58:21;;;;;;;20.90;18.30;;;;;20.70;101877.00;;;;2089092;28;20240;-60
2022/01/17 03:59:21;;;;;;;20.30;17.80;;;;;20.70;101877.00;;;;2088379;28;20224;-59
2022/01/17 04:00:26;;;;;;;21.23;19.03;;;;;20.70;101863.00;;;;2088258;28;20219;-60
2022/01/17 04:01:27;;;;;;;20.58;18.02;;;;;20.70;101863.00;;;;2088782;28;20572;-60
2022/01/17 04:02:27;;;;;;;20.87;18.67;;;;;20.70;101861.00;;;;2088997;28;20212;-60
2022/01/17 04:03:28;;;;;;;19.77;17.67;;;;;20.70;101861.00;;;;2088957;28;20225;-60
2022/01/17 04:04:28;;;;;;;20.40;18.20;;;;;20.70;101865.00;;;;2087889;28;20241;-60
2022/01/17 04:05:28;;;;;;;19.23;17.23;;;;;20.70;101864.00;;;;2088173;28;20217;-60
2022/01/17 04:06:29;;;;;;;19.83;17.73;;;;;20.70;101859.00;;;;2088969;28;20271;-60
2022/01/17 04:07:29;;;;;;;21.60;18.50;;;;;20.70;101862.00;;;;2088840;28;20583;-60
2022/01/17 04:08:29;;;;;;;20.20;17.67;;;;;20.70;101872.00;;;;2088894;28;20611;-60
2022/01/17 04:09:30;;;;;;;19.07;17.13;;;;;20.70;101879.00;;;;2089019;28;20707;-60
2022/01/17 04:10:30;;;;;;;20.30;17.10;;;;;20.70;101880.00;;;;2088807;28;20301;-60
2022/01/17 04:11:30;;;;;;;19.27;17.27;;;;;20.70;101880.00;;;;2088900;28;20561;-59
2022/01/17 04:12:31;;;;;;;20.30;18.20;;;;;20.60;101889.00;;;;2085283;28;20213;-60
2022/01/17 04:13:32;;;;;;;18.93;17.03;;;;;20.60;101896.00;;;;2088919;28;20235;-60
2022/01/17 04:14:35;;;;;;;20.90;18.17;;;;;20.70;101879.00;;;;2088940;28;20302;-60
2022/01/17 04:15:36;;;;;;;18.83;16.92;;;;;20.70;101881.00;;;;2089023;28;20209;-60
2022/01/17 04:16:36;;;;;;;18.87;16.90;;;;;20.60;101881.00;;;;2079944;28;20615;-60
2022/01/17 04:17:39;;;;;;;18.70;16.27;;;;;20.60;101885.00;;;;2080012;28;20214;-60
2022/01/17 04:18:39;;;;;;;19.25;17.15;;;;;20.60;101884.00;;;;2088806;28;20216;-60
2022/01/17 04:19:41;;;;;;;20.67;17.30;;;;;20.70;101885.00;;;;2088611;28;20201;-60
2022/01/17 04:20:42;;;;;;;19.23;16.70;;;;;20.70;101880.00;;;;2088769;28;20826;-60
2022/01/17 04:21:42;;;;;;;21.20;18.37;;;;;20.60;101877.00;;;;2088907;28;20288;-60
2022/01/17 04:22:50;;;;;;;19.13;17.03;;;;;20.60;101888.00;;;;2089072;28;20684;-60
2022/01/17 04:23:50;;;;;;;18.58;16.13;;;;;20.60;101878.00;;;;2084930;28;20743;-60
2022/01/17 04:24:50;;;;;;;19.33;17.20;;;;;20.60;101890.00;;;;2088227;28;20205;-59
2022/01/17 04:25:51;;;;;;;19.20;17.20;;;;;20.60;101894.00;;;;2088996;28;20281;-60
2022/01/17 04:26:51;;;;;;;19.03;17.07;;;;;20.60;101896.00;;;;2088753;28;20212;-60
2022/01/17 04:27:52;;;;;;;18.70;16.60;;;;;20.60;101892.00;;;;2088794;28;20288;-60
2022/01/17 04:28:53;;;;;;;21.10;18.00;;;;;20.60;101887.00;;;;2088937;28;20223;-60
2022/01/17 04:29:53;;;;;;;19.73;17.20;;;;;20.60;101890.00;;;;2088976;28;20703;-60
2022/01/17 04:30:53;;;;;;;20.10;17.07;;;;;20.60;101897.00;;;;2088630;28;20706;-60
2022/01/17 04:31:54;;;;;;;19.30;17.37;;;;;20.60;101890.00;;;;2088787;28;20221;-60
2022/01/17 04:32:55;;;;;;;21.20;17.00;;;;;20.60;101892.00;;;;2088890;28;20220;-60
2022/01/17 04:33:55;;;;;;;20.83;17.83;;;;;20.60;101895.00;;;;2088820;28;20237;-60
2022/01/17 04:34:55;;;;;;;19.97;17.87;;;;;20.60;101902.00;;;;2088873;28;20471;-60
2022/01/17 04:35:56;;;;;;;20.20;18.00;;;;;20.60;101901.00;;;;2088819;28;20235;-60
2022/01/17 04:36:56;;;;;;;18.87;16.97;;;;;20.60;101904.00;;;;2087979;28;20229;-59
2022/01/17 04:37:59;;;;;;;18.60;16.70;;;;;20.60;101898.00;;;;2088150;28;20241;-60
2022/01/17 04:38:59;;;;;;;19.83;17.77;;;;;20.60;101914.00;;;;2088787;28;20296;-60
2022/01/17 04:40:00;;;;;;;18.37;16.53;;;;;20.60;101919.00;;;;2085227;28;20691;-60
2022/01/17 04:41:03;;;;;;;18.60;16.70;;;;;20.60;101907.00;;;;2088442;28;20223;-60
2022/01/17 04:42:11;;;;;;;19.27;17.00;;;;;20.60;101908.00;;;;2087669;28;20251;-59
2022/01/17 04:43:42;;;;;;;19.40;16.42;;;;;20.60;101906.00;;;;2085394;28;20232;-60
2022/01/17 04:46:00;;;;;;;19.67;17.58;;;;;20.60;101900.00;;;;2086377;28;20584;-60
2022/01/17 04:47:00;;;;;;;18.97;16.77;;;;;20.60;101902.00;;;;2088512;28;20221;-60
2022/01/17 04:48:00;;;;;;;20.20;16.90;;;;;20.60;101892.00;;;;2088355;28;20221;-60
2022/01/17 04:49:01;;;;;;;20.77;16.50;;;;;20.60;101894.00;;;;2088102;28;20236;-60
2022/01/17 04:50:01;;;;;;;19.20;17.17;;;;;20.60;101887.00;;;;2088568;28;20258;-59
2022/01/17 04:51:02;;;;;;;18.57;16.57;;;;;20.50;101884.00;;;;2088252;28;20217;-60
2022/01/17 04:52:02;;;;;;;18.30;16.37;;;;;20.50;101896.00;;;;2088670;28;20213;-60
2022/01/17 04:53:03;;;;;;;18.97;17.00;;;;;20.60;101889.00;;;;2088515;28;20644;-60
2022/01/17 04:54:26;;;;;;;18.17;16.27;;;;;20.60;101886.00;;;;2088394;28;20681;-60
2022/01/17 04:55:24;;;;;;;19.55;17.25;;;;;20.50;101889.00;;;;2085497;28;20220;-60
2022/01/17 04:56:24;;;;;;;19.83;17.43;;;;;20.50;101884.00;;;;2087847;28;20212;-60
2022/01/17 04:57:25;;;;;;;17.80;15.90;;;;;20.50;101883.00;;;;2075327;28;20762;-60
2022/01/17 04:58:25;;;;;;;19.23;17.33;;;;;20.60;101882.00;;;;2067069;28;20218;-60
2022/01/17 04:59:25;;;;;;;19.33;17.23;;;;;20.50;101891.00;;;;2075035;28;20218;-60
2022/01/17 05:00:26;;;;;;;18.03;16.23;;;;;20.50;101896.00;;;;2085747;28;20217;-60
2022/01/17 05:01:27;;;;;;;17.97;16.00;;;;;20.50;101911.00;;;;2087740;28;20224;-60
2022/01/17 05:02:27;;;;;;;18.10;16.20;;;;;20.50;101900.00;;;;2087902;28;20447;-60
2022/01/17 05:03:27;;;;;;;20.20;16.07;;;;;20.50;101896.00;;;;2088604;28;20228;-60
2022/01/17 05:04:28;;;;;;;16.33;14.63;;;;;20.50;101901.00;;;;2087811;28;20209;-60
2022/01/17 05:05:28;;;;;;;18.37;16.07;;;;;20.50;101904.00;;;;2087858;28;20266;-60
2022/01/17 05:06:28;;;;;;;18.00;16.20;;;;;20.50;101904.00;;;;2088678;28;20232;-60
2022/01/17 05:07:29;;;;;;;19.40;15.87;;;;;20.50;101902.00;;;;2084801;28;20209;-60
2022/01/17 05:08:29;;;;;;;16.90;15.10;;;;;20.50;101903.00;;;;2088540;28;20224;-59
2022/01/17 05:09:30;;;;;;;20.27;16.33;;;;;20.50;101903.00;;;;2088546;28;20216;-60
2022/01/17 05:10:30;;;;;;;18.17;15.70;;;;;20.50;101912.00;;;;2087502;28;20235;-60
2022/01/17 05:11:31;;;;;;;18.13;15.53;;;;;20.50;101917.00;;;;2087863;28;20505;-60
2022/01/17 05:12:32;;;;;;;17.55;15.65;;;;;20.50;101921.00;;;;2088501;28;20208;-60